To NAV CANADA Home Page Login to a new session Search on AWWS site Feedback and Comments Disclaimer Vers la page française équivalente Tips FAQ What's new on the site To the Forecasts and Observations / NOTAM section To "File a Flight Plan" website Publications and other links Update of the User's profile FIC Telephone Numbers My Weather Data Folder Route Weather Data Regional Weather Data Local Weather Data To the Forecasts and Observations / NOTAM section
Request Generated 02/24/2017 at 03:35:14 UTC . Weather information available at that time is displayed.

METAR/TAF

MEDICINE HAT/AB    (show WxCam)

METAR CYXH 240300Z CCA 11009KT 15SM -SN OVC026 M05/M08 A3006 RMK SC8
SLP222=
METAR CYXH 240300Z 11009KT 15SM OVC026 M05/M08 A3006 RMK SC8 SLP222=
METAR CYXH 240200Z 09008KT 15SM OVC030 M05/M08 A3007 RMK SC8 SLP227=
METAR CYXH 240100Z 07005KT 30SM SCT030 OVC100 M05/M08 A3008 RMK
SC3AC5 SLP229=

TAF CYXH 232349Z 2400/2412 09008KT P6SM FEW090 BKN270
BECMG 2403/2405 BKN030
FM240600 13008KT P6SM BKN030
FM241000 03004KT P6SM VCSH SCT020 BKN030 TEMPO 2410/2412 4SM
-SHSN BKN020
RMK NXT FCST BY 240600Z=
Your time UTC time
Weather data provided by Environment Canada and NAV CANADA